createdAt,value
2022-10-11T00:01:04.640Z,14.62
2022-10-11T00:03:33.176Z,14.55
2022-10-11T00:06:03.679Z,14.56
2022-10-11T00:08:32.619Z,14.53
2022-10-11T00:11:02.466Z,14.59
2022-10-11T00:13:32.479Z,14.57
2022-10-11T00:16:01.227Z,14.51
2022-10-11T00:18:29.874Z,14.48
2022-10-11T00:21:06.311Z,14.49
2022-10-11T00:23:35.289Z,14.46
2022-10-11T00:26:07.467Z,14.43
2022-10-11T00:28:38.872Z,14.41
2022-10-11T00:31:09.276Z,14.37
2022-10-11T00:33:37.967Z,14.30
2022-10-11T00:36:07.607Z,14.35
2022-10-11T00:38:36.670Z,14.35
2022-10-11T00:41:05.277Z,14.30
2022-10-11T00:43:34.215Z,14.26
2022-10-11T00:46:30.440Z,14.26
2022-10-11T00:49:05.715Z,14.24
2022-10-11T00:51:48.742Z,14.24
2022-10-11T00:54:19.936Z,14.20
2022-10-11T00:56:53.859Z,14.21
2022-10-11T00:59:27.411Z,14.18
2022-10-11T01:01:57.576Z,14.13
2022-10-11T01:04:26.113Z,14.10
2022-10-11T01:06:55.788Z,14.14
2022-10-11T01:09:24.292Z,14.10
2022-10-11T01:11:54.826Z,14.10
2022-10-11T01:14:52.985Z,14.07
2022-10-11T01:17:32.701Z,14.04
2022-10-11T01:20:24.970Z,13.99
2022-10-11T01:23:24.063Z,14.00
2022-10-11T01:26:09.658Z,14.00
2022-10-11T01:28:50.317Z,13.99
2022-10-11T01:31:26.748Z,13.94
2022-10-11T01:34:00.585Z,13.89
2022-10-11T01:36:33.120Z,13.94
2022-10-11T01:39:05.666Z,13.89
2022-10-11T01:41:39.989Z,13.86
2022-10-11T01:44:09.437Z,13.83
2022-10-11T01:46:39.386Z,13.83
2022-10-11T01:49:08.274Z,13.85
2022-10-11T01:51:44.046Z,13.86
2022-10-11T01:55:04.403Z,13.84
2022-10-11T01:58:00.748Z,13.77
2022-10-11T02:00:33.991Z,13.74
2022-10-11T02:03:27.094Z,13.71
2022-10-11T02:06:03.267Z,13.73
2022-10-11T02:08:40.033Z,13.59
2022-10-11T02:11:16.632Z,13.59
2022-10-11T02:13:52.020Z,13.65
2022-10-11T02:16:24.505Z,13.60
2022-10-11T02:18:55.666Z,13.62
2022-10-11T02:21:25.730Z,13.57
2022-10-11T02:23:58.105Z,13.57
2022-10-11T02:26:29.622Z,13.59
2022-10-11T02:29:02.258Z,13.55
2022-10-11T02:31:33.497Z,13.62
2022-10-11T02:34:11.055Z,13.54
2022-10-11T02:36:46.775Z,13.56
2022-10-11T02:39:19.929Z,13.51
2022-10-11T02:41:51.308Z,13.48
2022-10-11T02:44:27.882Z,13.48
2022-10-11T02:46:56.859Z,13.40
2022-10-11T02:49:27.704Z,13.44
2022-10-11T02:51:57.072Z,13.40
2022-10-11T02:54:25.806Z,13.35
2022-10-11T02:56:54.280Z,13.19
2022-10-11T02:59:22.755Z,13.30
2022-10-11T03:01:51.330Z,13.31
2022-10-11T03:04:19.873Z,13.25
2022-10-11T03:06:49.696Z,13.30
2022-10-11T03:09:18.564Z,13.31
2022-10-11T03:11:47.080Z,13.26
2022-10-11T03:14:15.554Z,13.30
2022-10-11T03:16:44.040Z,13.26
2022-10-11T03:19:16.894Z,13.22
2022-10-11T03:21:48.902Z,13.23
2022-10-11T03:24:17.375Z,13.24
2022-10-11T03:26:45.858Z,13.20
2022-10-11T03:29:14.362Z,13.12
2022-10-11T03:31:42.815Z,13.05
2022-10-11T03:34:11.290Z,12.77
2022-10-11T03:36:39.768Z,12.92
2022-10-11T03:39:09.680Z,13.06
2022-10-11T03:41:38.164Z,13.08
2022-10-11T03:44:06.629Z,12.83
2022-10-11T03:46:35.168Z,12.87
2022-10-11T03:49:03.716Z,13.02
2022-10-11T03:51:32.330Z,13.08
2022-10-11T03:54:00.827Z,13.09
2022-10-11T03:56:30.651Z,13.04
2022-10-11T03:58:59.191Z,13.08
2022-10-11T04:01:27.719Z,13.09
2022-10-11T04:03:57.892Z,13.07
2022-10-11T04:06:26.397Z,13.15
2022-10-11T04:08:54.898Z,13.20
2022-10-11T04:11:23.536Z,13.08
2022-10-11T04:13:54.093Z,12.90
2022-10-11T04:16:22.563Z,12.98
2022-10-11T04:18:51.063Z,12.96
2022-10-11T04:21:19.537Z,13.01
2022-10-11T04:23:48.045Z,12.95
2022-10-11T04:26:16.504Z,12.91
2022-10-11T04:28:45.029Z,12.93
2022-10-11T04:31:14.878Z,12.92
2022-10-11T04:33:43.449Z,12.93
2022-10-11T04:36:11.943Z,12.92
2022-10-11T04:38:40.504Z,12.88
2022-10-11T04:41:10.377Z,12.87
2022-10-11T04:43:39.006Z,12.87
2022-10-11T04:46:08.625Z,12.79
2022-10-11T04:48:38.848Z,12.77
2022-10-11T04:51:07.655Z,12.73
2022-10-11T04:53:36.134Z,12.74
2022-10-11T04:56:07.928Z,12.73
2022-10-11T04:58:37.123Z,12.96
2022-10-11T05:01:06.206Z,12.78
2022-10-11T05:03:35.048Z,12.65
2022-10-11T05:06:06.296Z,12.65
2022-10-11T05:08:35.033Z,12.58
2022-10-11T05:11:05.389Z,12.61
2022-10-11T05:13:35.224Z,12.66
2022-10-11T05:16:08.244Z,12.59
2022-10-11T05:18:39.401Z,12.56
2022-10-11T05:21:10.634Z,12.49
2022-10-11T05:23:39.086Z,12.48
2022-10-11T05:26:08.243Z,12.57
2022-10-11T05:28:37.036Z,12.52
2022-10-11T05:31:05.863Z,11.42
2022-10-11T05:33:35.261Z,11.71
2022-10-11T05:36:04.571Z,12.08
2022-10-11T05:38:34.560Z,12.35
2022-10-11T05:41:04.336Z,12.44
2022-10-11T05:43:33.092Z,12.54
2022-10-11T05:46:01.916Z,12.47
2022-10-11T05:48:30.592Z,12.47
2022-10-11T05:51:03.276Z,12.53
2022-10-11T05:53:34.079Z,12.55
2022-10-11T05:56:02.826Z,12.52
2022-10-11T05:58:31.593Z,12.53
2022-10-11T06:01:00.133Z,12.56
2022-10-11T06:03:28.716Z,12.51
2022-10-11T06:05:57.508Z,12.45
2022-10-11T06:08:26.004Z,12.46
2022-10-11T06:10:55.886Z,12.48
2022-10-11T06:13:24.369Z,12.47
2022-10-11T06:15:52.841Z,12.52
2022-10-11T06:18:21.296Z,12.53
2022-10-11T06:20:49.791Z,12.53
2022-10-11T06:23:18.220Z,12.50
2022-10-11T06:25:57.614Z,12.55
2022-10-11T06:28:26.420Z,12.58
2022-10-11T06:30:55.047Z,12.54
2022-10-11T06:33:23.958Z,12.55
2022-10-11T06:35:57.640Z,12.58
2022-10-11T06:38:26.246Z,12.55
2022-10-11T06:40:54.841Z,12.53
2022-10-11T06:43:25.353Z,12.59
2022-10-11T06:45:53.851Z,12.64
2022-10-11T06:48:22.315Z,12.72
2022-10-11T06:51:00.803Z,12.65
2022-10-11T06:53:29.929Z,12.40
2022-10-11T06:56:04.307Z,12.52
2022-10-11T06:58:34.453Z,12.70
2022-10-11T07:01:03.462Z,12.76
2022-10-11T07:03:32.582Z,12.87
2022-10-11T07:06:06.139Z,12.94
2022-10-11T07:08:34.953Z,12.77
2022-10-11T07:11:04.795Z,12.81
2022-10-11T07:13:34.652Z,12.04
2022-10-11T07:16:04.083Z,11.31
2022-10-11T07:18:33.376Z,10.56
2022-10-11T07:21:05.091Z,9.96
2022-10-11T07:23:33.845Z,10.25
2022-10-11T07:26:02.996Z,8.59
2022-10-11T07:28:33.177Z,9.07
2022-10-11T07:31:06.463Z,10.09
2022-10-11T07:33:34.956Z,11.38
2022-10-11T07:36:04.574Z,12.14
2022-10-11T07:38:33.418Z,10.83
2022-10-11T07:41:06.396Z,10.62
2022-10-11T07:43:36.880Z,10.53
2022-10-11T07:46:06.175Z,11.14
2022-10-11T07:48:36.083Z,9.87
2022-10-11T07:51:06.720Z,10.42
2022-10-11T07:53:40.648Z,9.77
2022-10-11T07:56:09.869Z,10.91
2022-10-11T07:58:39.760Z,12.00
2022-10-11T08:01:09.732Z,12.52
2022-10-11T08:03:38.981Z,12.26
2022-10-11T08:06:10.034Z,9.50
2022-10-11T08:08:39.296Z,11.35
2022-10-11T08:11:08.219Z,10.49
2022-10-11T08:13:38.376Z,10.08
2022-10-11T08:16:14.011Z,10.23
2022-10-11T08:18:42.470Z,10.92
2022-10-11T08:21:12.007Z,10.60
2022-10-11T08:23:40.733Z,11.39
2022-10-11T08:26:09.850Z,11.57
2022-10-11T08:28:40.080Z,11.43
2022-10-11T08:31:08.851Z,12.25
2022-10-11T08:33:37.326Z,12.35
2022-10-11T08:36:07.460Z,10.81
2022-10-11T08:38:38.412Z,11.24
2022-10-11T08:41:24.796Z,12.29
2022-10-11T08:44:02.610Z,12.83
2022-10-11T08:46:35.097Z,13.23
2022-10-11T08:49:04.141Z,12.06
2022-10-11T08:51:36.627Z,11.64
2022-10-11T08:54:11.936Z,11.47
2022-10-11T08:56:43.282Z,11.95
2022-10-11T08:59:27.673Z,11.25
2022-10-11T09:02:05.049Z,12.33
2022-10-11T09:04:33.598Z,11.80
2022-10-11T09:07:08.760Z,11.44
2022-10-11T09:10:04.631Z,11.40
2022-10-11T09:12:43.813Z,11.48
2022-10-11T09:15:21.625Z,12.64
2022-10-11T09:18:13.672Z,12.90
2022-10-11T09:20:52.944Z,13.12
2022-10-11T09:23:40.166Z,13.07
2022-10-11T09:26:12.650Z,13.52
2022-10-11T09:28:57.316Z,13.67
2022-10-11T09:31:30.662Z,14.14
2022-10-11T09:34:07.040Z,13.95
2022-10-11T09:36:42.221Z,14.13
2022-10-11T09:39:25.971Z,13.65
2022-10-11T09:41:59.790Z,13.58
2022-10-11T09:44:30.745Z,15.00
2022-10-11T09:47:00.855Z,15.28
2022-10-11T09:49:32.981Z,15.28
2022-10-11T09:52:04.247Z,15.51
2022-10-11T09:54:40.987Z,14.70
2022-10-11T09:57:24.049Z,15.14
2022-10-11T10:00:05.945Z,15.31
2022-10-11T10:02:43.856Z,14.61
2022-10-11T10:05:19.117Z,14.46
2022-10-11T10:08:23.054Z,14.66
2022-10-11T10:11:01.517Z,14.81
2022-10-11T10:13:39.176Z,14.56
2022-10-11T10:16:11.693Z,14.97
2022-10-11T10:18:50.306Z,14.92
2022-10-11T10:21:28.681Z,14.98
2022-10-11T10:24:00.052Z,15.61
2022-10-11T10:26:28.980Z,15.66
2022-10-11T10:29:05.551Z,15.08
2022-10-11T10:32:09.144Z,14.34
2022-10-11T10:34:32.484Z,14.16
2022-10-11T10:37:06.147Z,14.83
2022-10-11T10:39:42.315Z,14.21
2022-10-11T10:42:15.543Z,14.58
2022-10-11T10:44:46.055Z,13.97
2022-10-11T10:47:27.118Z,14.40
2022-10-11T10:50:03.399Z,14.62
2022-10-11T10:53:05.804Z,13.58
2022-10-11T10:55:40.893Z,14.73
2022-10-11T10:58:26.261Z,14.76
2022-10-11T11:01:01.692Z,14.66
2022-10-11T11:03:38.129Z,15.08
2022-10-11T11:06:10.727Z,15.47
2022-10-11T11:08:58.823Z,14.29
2022-10-11T11:11:40.632Z,14.58
2022-10-11T11:14:19.192Z,14.18
2022-10-11T11:16:56.859Z,13.83
2022-10-11T11:19:39.200Z,14.52
2022-10-11T11:22:20.258Z,14.97
2022-10-11T11:24:58.069Z,15.27
2022-10-11T11:27:42.453Z,14.98
2022-10-11T11:30:14.667Z,14.84
2022-10-11T11:32:53.761Z,14.72
2022-10-11T11:35:29.941Z,15.18
2022-10-11T11:38:06.673Z,14.55
2022-10-11T11:40:38.954Z,13.88
2022-10-11T11:43:16.453Z,13.71
2022-10-11T11:45:49.799Z,14.44
2022-10-11T11:48:24.680Z,14.76
2022-10-11T11:51:01.282Z,14.62
2022-10-11T11:53:48.315Z,14.83
2022-10-11T11:56:27.729Z,14.60
2022-10-11T11:59:04.211Z,14.05
2022-10-11T12:01:39.666Z,14.20
2022-10-11T12:04:15.058Z,14.36
2022-10-11T12:06:58.119Z,15.03
2022-10-11T12:09:36.056Z,14.20
2022-10-11T12:12:07.872Z,14.90
2022-10-11T12:14:39.806Z,14.50
2022-10-11T12:17:15.719Z,14.82
2022-10-11T12:20:00.552Z,15.07
2022-10-11T12:22:42.776Z,14.77
2022-10-11T12:25:36.944Z,14.74
2022-10-11T12:28:44.189Z,15.27
2022-10-11T12:31:21.396Z,14.84
2022-10-11T12:33:52.915Z,14.92
2022-10-11T12:36:36.846Z,15.50
2022-10-11T12:39:44.800Z,15.49
2022-10-11T12:42:30.127Z,14.71
2022-10-11T12:45:30.214Z,15.12
2022-10-11T12:48:19.365Z,15.00
2022-10-11T12:51:02.142Z,14.88
2022-10-11T12:54:25.025Z,15.43
2022-10-11T12:56:58.289Z,14.94
2022-10-11T12:59:28.212Z,14.82
2022-10-11T13:01:59.069Z,14.76
2022-10-11T13:04:29.933Z,14.45
2022-10-11T13:07:06.569Z,14.81
2022-10-11T13:09:39.147Z,14.87
2022-10-11T13:12:10.704Z,14.69
2022-10-11T13:14:45.637Z,14.79
2022-10-11T13:17:20.507Z,14.88
2022-10-11T13:19:59.728Z,15.04
2022-10-11T13:22:28.965Z,14.86
2022-10-11T13:24:57.976Z,15.24
2022-10-11T13:27:28.568Z,15.16
2022-10-11T13:30:06.829Z,15.26
2022-10-11T13:32:37.875Z,14.97
2022-10-11T13:35:14.539Z,15.50
2022-10-11T13:37:47.285Z,15.48
2022-10-11T13:40:17.654Z,15.46
2022-10-11T13:42:48.458Z,15.69
2022-10-11T13:45:21.038Z,15.62
2022-10-11T13:47:50.674Z,15.48
2022-10-11T13:50:31.669Z,15.20
2022-10-11T13:53:02.482Z,15.68
2022-10-11T13:55:34.419Z,15.72
2022-10-11T13:58:11.223Z,15.71
2022-10-11T14:00:56.005Z,16.03
2022-10-11T14:03:27.702Z,15.85
2022-10-11T14:05:57.706Z,15.96
2022-10-11T14:08:31.825Z,15.64
2022-10-11T14:11:06.042Z,15.88
2022-10-11T14:13:38.677Z,15.54
2022-10-11T14:16:10.454Z,15.79
2022-10-11T14:18:44.121Z,15.80
2022-10-11T14:21:33.792Z,15.15
2022-10-11T14:24:05.057Z,15.18
2022-10-11T14:26:36.881Z,15.17
2022-10-11T14:29:09.215Z,15.31
2022-10-11T14:31:41.932Z,14.61
2022-10-11T14:34:16.704Z,14.81
2022-10-11T14:36:45.203Z,15.20
2022-10-11T14:39:17.722Z,15.48
2022-10-11T14:41:47.148Z,15.57
2022-10-11T14:44:16.776Z,15.66
2022-10-11T14:46:48.407Z,15.57
2022-10-11T14:49:18.627Z,15.68
2022-10-11T14:51:48.857Z,15.73
2022-10-11T14:54:19.872Z,15.70
2022-10-11T14:56:48.670Z,15.36
2022-10-11T14:59:19.135Z,15.19
2022-10-11T15:01:51.850Z,14.99
2022-10-11T15:04:20.747Z,14.52
2022-10-11T15:06:49.825Z,14.18
2022-10-11T15:09:20.793Z,14.34
2022-10-11T15:11:50.225Z,14.19
2022-10-11T15:14:18.908Z,14.08
2022-10-11T15:16:48.829Z,14.03
2022-10-11T15:19:19.295Z,14.02
2022-10-11T15:21:48.059Z,13.87
2022-10-11T15:24:19.879Z,14.13
2022-10-11T15:26:49.375Z,14.14
2022-10-11T15:29:19.205Z,14.15
2022-10-11T15:31:49.936Z,14.29
2022-10-11T15:34:18.717Z,14.64
2022-10-11T15:36:49.998Z,14.89
2022-10-11T15:39:27.623Z,15.15
2022-10-11T15:41:56.268Z,15.29
2022-10-11T15:44:24.767Z,15.09
2022-10-11T15:46:54.707Z,14.66
2022-10-11T15:49:23.198Z,14.64
2022-10-11T15:51:51.704Z,14.61
2022-10-11T15:54:20.145Z,14.08
2022-10-11T15:56:48.616Z,13.80
2022-10-11T15:59:17.075Z,13.75
2022-10-11T16:01:46.695Z,13.84
2022-10-11T16:04:16.559Z,14.29
2022-10-11T16:06:45.041Z,14.69
2022-10-11T16:09:13.516Z,14.93
2022-10-11T16:11:42.010Z,15.06
2022-10-11T16:14:10.460Z,15.12
2022-10-11T16:16:38.940Z,15.18
2022-10-11T16:19:07.392Z,15.16
2022-10-11T16:21:37.242Z,15.20
2022-10-11T16:24:05.904Z,15.19
2022-10-11T16:26:34.539Z,15.18
2022-10-11T16:29:03.029Z,15.13
2022-10-11T16:31:31.503Z,15.06
2022-10-11T16:33:59.960Z,15.09
2022-10-11T16:36:36.390Z,15.08
2022-10-11T16:39:09.681Z,15.09
2022-10-11T16:41:38.481Z,15.04
2022-10-11T16:44:07.455Z,15.03
2022-10-11T16:46:36.085Z,15.01
2022-10-11T16:49:05.173Z,15.01
2022-10-11T16:51:33.700Z,14.96
2022-10-11T16:54:02.613Z,14.96
2022-10-11T16:56:37.356Z,14.73
2022-10-11T17:01:38.876Z,14.85
2022-10-11T17:04:07.654Z,14.89
2022-10-11T17:06:36.155Z,15.01
2022-10-11T17:09:04.907Z,14.96
2022-10-11T17:11:34.825Z,14.91
2022-10-11T17:14:05.152Z,14.85
2022-10-11T17:16:33.729Z,14.91
2022-10-11T17:19:02.465Z,14.80
2022-10-11T17:21:30.993Z,14.84
2022-10-11T17:23:59.476Z,14.76
2022-10-11T17:26:28.590Z,14.78
2022-10-11T17:29:00.347Z,14.79
2022-10-11T17:31:30.170Z,14.79
2022-10-11T17:34:00.931Z,14.72
2022-10-11T17:36:32.046Z,14.82
2022-10-11T17:39:01.883Z,14.74
2022-10-11T17:41:32.254Z,14.79
2022-10-11T17:44:03.147Z,14.74
2022-10-11T17:46:32.930Z,14.71
2022-10-11T17:49:04.697Z,14.67
2022-10-11T17:51:33.353Z,14.67
2022-10-11T17:54:01.849Z,14.67
2022-10-11T17:56:36.589Z,14.63
2022-10-11T17:59:08.263Z,14.60
2022-10-11T18:01:36.929Z,14.60
2022-10-11T18:04:07.005Z,14.59
2022-10-11T18:06:39.577Z,14.57
2022-10-11T18:09:08.416Z,14.55
2022-10-11T18:11:37.377Z,14.53
2022-10-11T18:14:07.388Z,14.53
2022-10-11T18:16:37.755Z,14.56
2022-10-11T18:19:08.763Z,14.50
2022-10-11T18:21:37.788Z,14.48
2022-10-11T18:24:10.732Z,14.46
2022-10-11T18:26:39.948Z,14.44
2022-10-11T18:29:10.058Z,14.44
2022-10-11T18:31:38.541Z,14.41
2022-10-11T18:34:08.420Z,14.40
2022-10-11T18:36:37.212Z,14.42
2022-10-11T18:39:07.710Z,14.36
2022-10-11T18:41:38.905Z,14.41
2022-10-11T18:44:10.941Z,14.37
2022-10-11T18:46:39.538Z,14.32
2022-10-11T18:49:08.654Z,14.34
2022-10-11T18:51:38.994Z,14.31
2022-10-11T18:54:08.765Z,14.29
2022-10-11T18:56:37.837Z,14.25
2022-10-11T18:59:07.837Z,14.24
2022-10-11T19:01:40.028Z,14.24
2022-10-11T19:04:10.152Z,14.22
2022-10-11T19:06:40.880Z,14.23
2022-10-11T19:09:11.756Z,14.17
2022-10-11T19:11:41.220Z,14.12
2022-10-11T19:14:12.151Z,14.16
2022-10-11T19:16:45.317Z,14.12
2022-10-11T19:19:14.358Z,14.11
2022-10-11T19:21:43.182Z,14.11
2022-10-11T19:24:11.735Z,14.08
2022-10-11T19:26:41.943Z,14.13
2022-10-11T19:29:14.640Z,14.11
2022-10-11T19:31:46.498Z,14.04
2022-10-11T19:34:15.357Z,14.03
2022-10-11T19:36:44.152Z,14.01
2022-10-11T19:39:14.730Z,14.03
2022-10-11T19:41:44.344Z,14.02
2022-10-11T19:44:13.599Z,13.96
2022-10-11T19:46:52.053Z,14.00
2022-10-11T19:49:23.892Z,13.97
2022-10-11T19:51:52.812Z,13.88
2022-10-11T19:54:21.384Z,13.94
2022-10-11T19:56:49.886Z,13.93
2022-10-11T19:59:18.669Z,13.86
2022-10-11T20:01:52.621Z,13.83
2022-10-11T20:04:47.457Z,13.81
2022-10-11T20:07:10.895Z,13.77
2022-10-11T20:09:39.400Z,13.77
2022-10-11T20:12:08.352Z,13.80
2022-10-11T20:14:36.953Z,13.80
2022-10-11T20:17:06.819Z,13.80
2022-10-11T20:19:35.687Z,13.75
2022-10-11T20:22:04.256Z,13.75
2022-10-11T20:24:34.471Z,13.75
2022-10-11T20:27:04.596Z,13.72
2022-10-11T20:29:33.131Z,13.73
2022-10-11T20:32:01.637Z,13.73
2022-10-11T20:34:31.454Z,13.63
2022-10-11T20:36:59.908Z,13.64
2022-10-11T20:39:28.553Z,13.62
2022-10-11T20:41:57.000Z,13.63
2022-10-11T20:44:25.685Z,13.61
2022-10-11T20:46:54.162Z,13.57
2022-10-11T20:49:22.729Z,13.58
2022-10-11T20:51:52.579Z,13.63
2022-10-11T20:54:21.227Z,13.55
2022-10-11T20:56:49.684Z,13.56
2022-10-11T20:59:18.292Z,13.57
2022-10-11T21:01:46.826Z,13.45
2022-10-11T21:04:19.665Z,13.47
2022-10-11T21:06:48.680Z,13.48
2022-10-11T21:09:19.159Z,13.46
2022-10-11T21:11:47.769Z,13.47
2022-10-11T21:14:16.277Z,13.50
2022-10-11T21:16:44.846Z,13.48
2022-10-11T21:19:16.003Z,13.39
2022-10-11T21:21:50.902Z,13.37
2022-10-11T21:24:23.577Z,13.36
2022-10-11T21:26:54.045Z,13.36
2022-10-11T21:29:25.473Z,13.37
2022-10-11T21:31:53.941Z,13.32
2022-10-11T21:34:22.406Z,13.31
2022-10-11T21:36:50.871Z,13.25
2022-10-11T21:39:19.350Z,13.24
2022-10-11T21:41:49.187Z,13.24
2022-10-11T21:44:17.757Z,13.21
2022-10-11T21:49:34.681Z,13.20
2022-10-11T21:52:03.554Z,13.18
2022-10-11T21:54:32.015Z,13.15
2022-10-11T21:57:01.867Z,13.15
2022-10-11T21:59:30.338Z,13.14
2022-10-11T22:02:01.906Z,13.09
2022-10-11T22:04:30.761Z,13.14
2022-10-11T22:06:59.365Z,13.17
2022-10-11T22:09:29.763Z,13.12
2022-10-11T22:11:58.236Z,13.07
2022-10-11T22:14:28.284Z,13.02
2022-10-11T22:16:56.803Z,13.01
2022-10-11T22:19:25.392Z,13.06
2022-10-11T22:21:53.863Z,13.02
2022-10-11T22:24:22.368Z,13.06
2022-10-11T22:26:50.849Z,12.96
2022-10-11T22:29:19.337Z,13.03
2022-10-11T22:31:49.159Z,12.96
2022-10-11T22:34:17.751Z,12.98
2022-10-11T22:36:46.243Z,13.00
2022-10-11T22:39:14.712Z,12.91
2022-10-11T22:41:43.151Z,12.94
2022-10-11T22:44:12.788Z,12.86
2022-10-11T22:46:41.251Z,12.87
2022-10-11T22:49:11.094Z,12.83
2022-10-11T22:51:39.606Z,12.81
2022-10-11T22:54:08.087Z,12.85
2022-10-11T22:56:36.544Z,12.81
2022-10-11T22:59:05.118Z,12.78
2022-10-11T23:01:33.707Z,12.76
2022-10-11T23:04:02.243Z,12.74
2022-10-11T23:06:32.144Z,12.76
2022-10-11T23:09:00.626Z,12.69
2022-10-11T23:11:29.100Z,12.72
2022-10-11T23:13:57.572Z,12.76
2022-10-11T23:16:26.066Z,12.67
2022-10-11T23:18:55.249Z,12.68
2022-10-11T23:21:23.912Z,12.65
2022-10-11T23:23:55.403Z,12.66
2022-10-11T23:26:23.879Z,12.68
2022-10-11T23:28:56.102Z,12.64
2022-10-11T23:31:24.577Z,12.53
2022-10-11T23:33:54.456Z,12.35
2022-10-11T23:36:25.215Z,12.44
2022-10-11T23:38:56.625Z,12.41
2022-10-11T23:41:26.549Z,11.54
2022-10-11T23:43:55.084Z,12.08
2022-10-11T23:46:23.624Z,12.27
2022-10-11T23:48:52.463Z,12.37
2022-10-11T23:51:21.214Z,12.30
2022-10-11T23:53:49.731Z,11.97
2022-10-11T23:56:19.635Z,12.05
2022-10-11T23:58:48.112Z,12.24
